createdAt,value
2018-03-11T00:01:18.457Z,7.50
2018-03-11T00:03:46.432Z,7.77
2018-03-11T00:06:14.445Z,4.60
2018-03-11T00:08:41.492Z,7.87
2018-03-11T00:11:10.378Z,4.63
2018-03-11T00:13:37.446Z,6.23
2018-03-11T00:16:04.493Z,4.17
2018-03-11T00:18:33.435Z,6.53
2018-03-11T00:20:59.891Z,7.87
2018-03-11T00:23:27.380Z,3.43
2018-03-11T00:25:54.419Z,7.63
2018-03-11T00:28:21.519Z,4.67
2018-03-11T00:30:48.556Z,4.97
2018-03-11T00:33:15.594Z,5.37
2018-03-11T00:35:42.685Z,7.83
2018-03-11T00:38:09.708Z,7.90
2018-03-11T00:40:36.737Z,5.63
2018-03-11T00:43:04.824Z,5.60
2018-03-11T00:45:31.858Z,6.77
2018-03-11T00:47:58.909Z,6.40
2018-03-11T00:50:25.998Z,6.63
2018-03-11T00:52:53.890Z,5.67
2018-03-11T00:55:20.922Z,4.23
2018-03-11T00:57:48.015Z,6.33
2018-03-11T01:00:15.038Z,5.20
2018-03-11T01:02:42.056Z,6.37
2018-03-11T01:05:09.134Z,6.80
2018-03-11T01:07:39.600Z,6.13
2018-03-11T01:10:06.621Z,5.40
2018-03-11T01:15:13.016Z,8.20
2018-03-11T01:17:40.087Z,6.57
2018-03-11T01:20:07.122Z,5.40
2018-03-11T01:22:35.079Z,3.40
2018-03-11T01:25:03.461Z,4.07
2018-03-11T01:27:30.466Z,7.40
2018-03-11T01:32:40.849Z,9.35
2018-03-11T01:35:07.878Z,8.77
2018-03-11T01:37:34.926Z,6.80
2018-03-11T01:40:02.959Z,6.20
2018-03-11T01:42:29.999Z,8.17
2018-03-11T01:44:57.033Z,5.97
2018-03-11T01:47:24.117Z,5.90
2018-03-11T01:49:52.080Z,4.40
2018-03-11T01:52:19.116Z,5.17
2018-03-11T01:54:46.187Z,7.00
2018-03-11T01:57:13.218Z,3.23
2018-03-11T01:59:40.244Z,7.80
2018-03-11T02:02:07.318Z,6.60
2018-03-11T02:04:34.344Z,4.80
2018-03-11T02:07:01.376Z,3.90
2018-03-11T02:09:28.451Z,3.57
2018-03-11T02:11:56.420Z,6.80
2018-03-11T02:14:23.442Z,7.07
2018-03-11T02:16:50.961Z,6.07
2018-03-11T02:19:17.989Z,4.73
2018-03-11T02:21:45.019Z,7.47
2018-03-11T02:24:12.104Z,5.40
2018-03-11T02:26:39.136Z,5.07
2018-03-11T02:29:06.169Z,7.77
2018-03-11T02:31:33.256Z,7.03
2018-03-11T02:34:00.287Z,8.10
2018-03-11T02:36:27.311Z,4.50
2018-03-11T02:38:54.399Z,7.27
2018-03-11T02:41:21.415Z,3.53
2018-03-11T02:43:50.467Z,6.23
2018-03-11T02:46:15.629Z,4.13
2018-03-11T02:48:42.666Z,3.73
2018-03-11T02:51:09.680Z,2.90
2018-03-11T02:53:36.758Z,7.57
2018-03-11T02:58:45.313Z,8.27
2018-03-11T03:01:12.334Z,8.03
2018-03-11T03:03:39.382Z,4.30
2018-03-11T03:06:06.443Z,6.13
2018-03-11T03:08:35.252Z,6.20
2018-03-11T03:11:02.275Z,2.90
2018-03-11T03:13:29.370Z,6.23
2018-03-11T03:15:56.399Z,4.37
2018-03-11T03:18:24.243Z,3.47
2018-03-11T03:20:51.320Z,3.67
2018-03-11T03:23:18.344Z,4.80
2018-03-11T03:25:45.373Z,2.63
2018-03-11T03:28:12.460Z,3.37
2018-03-11T03:30:39.545Z,3.73
2018-03-11T03:33:06.515Z,6.60
2018-03-11T03:35:33.623Z,5.97
2018-03-11T03:38:01.580Z,3.73
2018-03-11T03:40:29.062Z,2.73
2018-03-11T03:42:56.135Z,5.33
2018-03-11T03:45:23.150Z,3.70
2018-03-11T03:47:50.177Z,5.17
2018-03-11T03:50:17.248Z,4.27
2018-03-11T03:52:44.357Z,3.03
2018-03-11T03:55:11.381Z,6.20
2018-03-11T03:57:38.747Z,6.37
2018-03-11T04:00:06.603Z,4.77
2018-03-11T04:02:33.631Z,7.27
2018-03-11T04:05:00.704Z,8.07
2018-03-11T04:07:27.724Z,3.10
2018-03-11T04:09:54.749Z,5.47
2018-03-11T04:12:21.915Z,5.87
2018-03-11T04:14:48.933Z,4.70
2018-03-11T04:17:15.968Z,4.87
2018-03-11T04:22:21.823Z,8.82
2018-03-11T04:24:48.909Z,3.83
2018-03-11T04:27:15.941Z,5.97
2018-03-11T04:29:42.957Z,5.03
2018-03-11T04:32:10.048Z,4.77
2018-03-11T04:34:38.230Z,4.60
2018-03-11T04:37:06.196Z,5.00
2018-03-11T04:39:33.269Z,3.03
2018-03-11T04:42:00.299Z,3.60
2018-03-11T04:44:27.403Z,5.33
2018-03-11T04:46:54.424Z,2.30
2018-03-11T04:49:24.294Z,5.17
2018-03-11T04:51:48.463Z,3.30
2018-03-11T04:54:15.558Z,6.07
2018-03-11T04:56:42.601Z,4.10
2018-03-11T04:59:09.619Z,4.90
2018-03-11T05:01:36.696Z,5.33
2018-03-11T05:04:03.705Z,5.13
2018-03-11T05:06:30.730Z,4.70
2018-03-11T05:08:57.803Z,4.40
2018-03-11T05:11:25.652Z,5.83
2018-03-11T05:13:52.675Z,6.20
2018-03-11T05:16:19.764Z,5.43
2018-03-11T05:18:48.979Z,5.10
2018-03-11T05:21:16.002Z,5.40
2018-03-11T05:23:43.085Z,5.53
2018-03-11T05:26:10.100Z,5.23
2018-03-11T05:28:37.127Z,2.93
2018-03-11T05:31:05.161Z,4.67
2018-03-11T05:33:32.186Z,4.50
2018-03-11T05:35:59.211Z,3.80
2018-03-11T05:38:27.179Z,5.03
2018-03-11T05:40:55.167Z,5.30
2018-03-11T05:46:00.715Z,6.18
2018-03-11T05:48:27.735Z,5.97
2018-03-11T05:50:54.776Z,3.57
2018-03-11T05:53:21.865Z,4.03
2018-03-11T05:55:48.908Z,6.87
2018-03-11T05:58:16.826Z,4.67
2018-03-11T06:00:43.911Z,5.63
2018-03-11T06:03:11.954Z,2.83
2018-03-11T06:05:38.999Z,3.43
2018-03-11T06:08:06.104Z,4.23
2018-03-11T06:10:33.182Z,2.70
2018-03-11T06:13:00.168Z,4.30
2018-03-11T06:15:27.241Z,4.43
2018-03-11T06:17:54.327Z,3.70
2018-03-11T06:23:04.151Z,6.15
2018-03-11T06:25:32.056Z,5.63
2018-03-11T06:27:59.079Z,4.17
2018-03-11T06:30:26.177Z,2.17
2018-03-11T06:32:55.494Z,4.30
2018-03-11T06:35:22.523Z,6.47
2018-03-11T06:37:49.607Z,5.00
2018-03-11T06:40:16.656Z,3.57
2018-03-11T06:42:43.702Z,5.57
2018-03-11T06:45:10.841Z,6.17
2018-03-11T06:47:37.864Z,2.90
2018-03-11T06:50:04.889Z,4.93
2018-03-11T06:52:31.966Z,5.17
2018-03-11T06:54:58.977Z,4.67
2018-03-11T06:57:25.993Z,2.97
2018-03-11T06:59:53.993Z,5.50
2018-03-11T07:02:21.034Z,4.20
2018-03-11T07:04:48.059Z,3.77
2018-03-11T07:07:15.223Z,2.47
2018-03-11T07:09:42.253Z,5.50
2018-03-11T07:12:09.531Z,3.67
2018-03-11T07:14:36.606Z,4.83
2018-03-11T07:17:03.630Z,4.97
2018-03-11T07:19:31.546Z,2.63
2018-03-11T07:21:58.618Z,5.17
2018-03-11T07:24:26.574Z,3.30
2018-03-11T07:26:53.588Z,3.90
2018-03-11T07:29:20.673Z,4.80
2018-03-11T07:31:47.694Z,3.70
2018-03-11T07:34:14.720Z,4.50
2018-03-11T07:36:41.806Z,4.43
2018-03-11T07:39:08.827Z,1.70
2018-03-11T07:41:35.841Z,4.70
2018-03-11T07:44:02.951Z,2.57
2018-03-11T07:46:29.974Z,4.87
2018-03-11T07:51:35.960Z,4.15
2018-03-11T07:54:02.988Z,4.13
2018-03-11T07:56:30.006Z,8.20
2018-03-11T07:58:57.137Z,6.23
2018-03-11T08:01:24.182Z,4.03
2018-03-11T08:03:52.161Z,4.17
2018-03-11T08:06:19.245Z,3.07
2018-03-11T08:08:46.253Z,3.47
2018-03-11T08:11:13.279Z,5.90
2018-03-11T08:13:40.351Z,3.27
2018-03-11T08:16:08.333Z,2.77
2018-03-11T08:18:35.358Z,4.07
2018-03-11T08:21:02.431Z,5.77
2018-03-11T08:23:29.454Z,4.83
2018-03-11T08:25:56.482Z,3.57
2018-03-11T08:28:23.603Z,4.10
2018-03-11T08:30:50.606Z,4.30
2018-03-11T08:33:17.658Z,3.20
2018-03-11T08:35:44.747Z,3.10
2018-03-11T08:38:11.766Z,4.60
2018-03-11T08:40:38.877Z,2.43
2018-03-11T08:45:48.535Z,3.55
2018-03-11T08:48:17.116Z,1.00
2018-03-11T08:50:44.926Z,2.50
2018-03-11T08:53:13.910Z,3.90
2018-03-11T08:55:42.228Z,3.10
2018-03-11T08:58:08.828Z,3.10
2018-03-11T09:00:35.934Z,4.40
2018-03-11T09:03:03.000Z,4.00
2018-03-11T09:05:30.017Z,2.87
2018-03-11T09:07:57.054Z,3.57
2018-03-11T09:10:24.180Z,1.50
2018-03-11T09:12:51.173Z,1.80
2018-03-11T09:15:18.200Z,2.57
2018-03-11T09:17:45.277Z,4.80
2018-03-11T09:20:12.311Z,3.60
2018-03-11T09:22:39.706Z,2.07
2018-03-11T09:25:07.632Z,0.50
2018-03-11T09:27:34.630Z,0.93
2018-03-11T09:30:01.648Z,3.37
2018-03-11T09:32:28.759Z,3.87
2018-03-11T09:34:56.603Z,2.97
2018-03-11T09:37:23.621Z,4.40
2018-03-11T09:39:50.698Z,3.17
2018-03-11T09:42:17.719Z,1.77
2018-03-11T09:44:44.741Z,4.13
2018-03-11T09:47:11.824Z,2.70
2018-03-11T09:52:18.891Z,4.28
2018-03-11T09:54:45.909Z,3.80
2018-03-11T09:57:18.108Z,1.90
2018-03-11T09:59:45.203Z,1.70
2018-03-11T10:02:12.202Z,0.60
2018-03-11T10:04:39.312Z,3.90
2018-03-11T10:07:06.400Z,2.90
2018-03-11T10:09:33.420Z,2.70
2018-03-11T10:12:00.444Z,3.70
2018-03-11T10:14:31.020Z,4.13
2018-03-11T10:16:57.787Z,3.80
2018-03-11T10:19:24.810Z,2.30
2018-03-11T10:21:51.905Z,2.97
2018-03-11T10:24:18.888Z,3.87
2018-03-11T10:26:45.909Z,4.20
2018-03-11T10:29:12.988Z,3.77
2018-03-11T10:31:40.089Z,4.70
2018-03-11T10:34:07.103Z,3.73
2018-03-11T10:36:34.169Z,5.10
2018-03-11T10:39:01.178Z,5.60
2018-03-11T10:41:28.189Z,3.83
2018-03-11T10:43:55.268Z,4.17
2018-03-11T10:46:22.380Z,3.07
2018-03-11T10:48:50.226Z,1.87
2018-03-11T10:51:17.318Z,1.37
2018-03-11T10:53:44.422Z,0.40
2018-03-11T10:56:11.447Z,0.77
2018-03-11T10:58:38.514Z,0.60
2018-03-11T11:01:05.527Z,1.83
2018-03-11T11:03:32.539Z,0.43
2018-03-11T11:05:59.618Z,0.50
2018-03-11T11:08:26.665Z,0.73
2018-03-11T11:10:53.686Z,0.37
2018-03-11T11:15:57.072Z,0.20
2018-03-11T11:18:24.143Z,0.20
2018-03-11T11:20:51.212Z,0.40
2018-03-11T11:23:18.192Z,0.20
2018-03-11T11:25:45.262Z,0.63
2018-03-11T11:28:12.284Z,0.10
2018-03-11T11:30:39.370Z,1.30
2018-03-11T11:33:06.382Z,1.90
2018-03-11T11:35:33.956Z,0.53
2018-03-11T11:38:00.972Z,0.80
2018-03-11T11:40:31.207Z,0.83
2018-03-11T11:42:58.225Z,0.90
2018-03-11T11:45:25.243Z,0.50
2018-03-11T11:47:52.318Z,0.50
2018-03-11T11:50:19.333Z,0.33
2018-03-11T11:52:46.436Z,0.20
2018-03-11T11:55:13.512Z,2.00
2018-03-11T11:57:40.521Z,1.27
2018-03-11T12:00:07.541Z,1.00
2018-03-11T12:02:34.616Z,0.73
2018-03-11T12:05:01.630Z,0.30
2018-03-11T12:07:28.657Z,0.50
2018-03-11T12:09:55.736Z,0.30
2018-03-11T12:12:22.753Z,0.20
2018-03-11T12:14:49.866Z,0.30
2018-03-11T12:17:16.951Z,0.30
2018-03-11T12:19:43.976Z,0.30
2018-03-11T12:22:11.936Z,0.40
2018-03-11T12:24:39.007Z,0.30
2018-03-11T12:27:06.033Z,0.53
2018-03-11T12:29:33.058Z,0.27
2018-03-11T12:32:00.141Z,0.30
2018-03-11T12:34:27.212Z,0.50
2018-03-11T12:39:33.641Z,0.30
2018-03-11T12:42:00.705Z,0.40
2018-03-11T12:44:27.712Z,0.30
2018-03-11T12:46:55.537Z,0.20
2018-03-11T12:49:22.564Z,0.20
2018-03-11T12:51:49.606Z,0.27
2018-03-11T12:54:16.684Z,0.20
2018-03-11T12:56:43.717Z,0.30
2018-03-11T12:59:10.818Z,0.20
2018-03-11T13:01:37.887Z,0.23
2018-03-11T13:04:04.907Z,0.20
2018-03-11T13:06:31.937Z,0.30
2018-03-11T13:08:59.039Z,0.20
2018-03-11T13:11:26.060Z,0.30
2018-03-11T13:13:53.083Z,0.20
2018-03-11T13:16:20.162Z,0.20
2018-03-11T13:18:47.174Z,0.27
2018-03-11T13:21:14.242Z,0.20
2018-03-11T13:23:41.286Z,0.10
2018-03-11T13:26:08.317Z,0.30
2018-03-11T13:31:23.473Z,0.20
2018-03-11T13:34:02.423Z,0.30
2018-03-11T13:36:29.445Z,0.40
2018-03-11T13:39:08.406Z,0.33
2018-03-11T13:41:35.442Z,0.30
2018-03-11T13:44:02.471Z,0.10
2018-03-11T13:46:41.412Z,0.20
2018-03-11T13:52:01.489Z,0.25
2018-03-11T13:54:28.791Z,0.20
2018-03-11T13:57:08.246Z,0.20
2018-03-11T13:59:36.288Z,0.20
2018-03-11T14:02:04.209Z,0.30
2018-03-11T14:04:31.278Z,0.10
2018-03-11T14:06:58.315Z,0.20
2018-03-11T14:09:25.340Z,0.20
2018-03-11T14:11:52.422Z,0.20
2018-03-11T14:14:19.445Z,0.20
2018-03-11T14:16:46.477Z,0.20
2018-03-11T14:19:13.566Z,0.20
2018-03-11T14:24:18.754Z,0.17
2018-03-11T14:26:45.780Z,0.27
2018-03-11T14:29:12.816Z,0.20
2018-03-11T14:31:39.885Z,0.20
2018-03-11T14:34:07.365Z,0.20
2018-03-11T14:36:35.304Z,0.20
2018-03-11T14:39:03.338Z,0.10
2018-03-11T14:41:32.606Z,0.20
2018-03-11T14:43:58.195Z,0.20
2018-03-11T14:46:25.261Z,0.20
2018-03-11T14:48:52.301Z,0.30
2018-03-11T14:51:19.432Z,0.20
2018-03-11T14:53:46.597Z,1.17
2018-03-11T14:56:15.673Z,0.20
2018-03-11T14:58:42.697Z,0.10
2018-03-11T15:01:10.089Z,0.20
2018-03-11T15:03:37.105Z,0.10
2018-03-11T15:06:04.482Z,0.10
2018-03-11T15:08:32.437Z,0.20
2018-03-11T15:10:59.464Z,0.37
2018-03-11T15:13:26.489Z,0.13
2018-03-11T15:15:53.569Z,0.20
2018-03-11T15:18:20.593Z,0.17
2018-03-11T15:20:47.609Z,0.20
2018-03-11T15:23:14.685Z,0.10
2018-03-11T15:25:41.711Z,0.10
2018-03-11T15:30:40.794Z,0.27
2018-03-11T15:33:07.833Z,0.20
2018-03-11T15:35:35.603Z,0.17
2018-03-11T15:38:02.680Z,0.20
2018-03-11T15:40:29.714Z,0.10
2018-03-11T15:42:56.739Z,0.20
2018-03-11T15:48:03.796Z,0.10
2018-03-11T15:50:30.868Z,0.50
2018-03-11T15:52:57.897Z,1.40
2018-03-11T15:55:24.920Z,0.30
2018-03-11T15:57:51.986Z,0.20
2018-03-11T16:00:19.020Z,0.30
2018-03-11T16:02:46.045Z,0.20
2018-03-11T16:05:13.122Z,0.30
2018-03-11T16:07:40.140Z,0.20
2018-03-11T16:10:07.164Z,0.20
2018-03-11T16:12:35.182Z,0.30
2018-03-11T16:15:03.193Z,0.20
2018-03-11T16:17:30.173Z,0.10
2018-03-11T16:19:57.240Z,0.23
2018-03-11T16:22:24.582Z,0.30
2018-03-11T16:24:51.614Z,0.30
2018-03-11T16:27:19.665Z,0.20
2018-03-11T16:29:46.677Z,0.10
2018-03-11T16:32:13.711Z,0.30
2018-03-11T16:34:40.781Z,0.30
2018-03-11T16:37:08.781Z,0.20
2018-03-11T16:39:35.836Z,0.30
2018-03-11T16:42:02.918Z,0.20
2018-03-11T16:44:30.954Z,0.50
2018-03-11T16:46:57.993Z,0.23
2018-03-11T16:49:25.094Z,0.20
2018-03-11T16:51:52.142Z,0.20
2018-03-11T16:54:19.260Z,0.27
2018-03-11T16:56:46.383Z,0.40
2018-03-11T16:59:13.417Z,0.30
2018-03-11T17:01:40.454Z,0.40
2018-03-11T17:04:07.542Z,0.90
2018-03-11T17:06:34.609Z,0.50
2018-03-11T17:09:01.639Z,0.20
2018-03-11T17:11:28.761Z,0.30
2018-03-11T17:16:34.322Z,0.70
2018-03-11T17:21:40.405Z,0.10
2018-03-11T17:24:07.509Z,0.30
2018-03-11T17:26:34.468Z,0.40
2018-03-11T17:29:01.613Z,0.30
2018-03-11T17:31:28.643Z,0.23
2018-03-11T17:33:55.747Z,0.27
2018-03-11T17:36:22.815Z,0.40
2018-03-11T17:38:49.827Z,0.30
2018-03-11T17:41:16.849Z,0.33
2018-03-11T17:43:43.937Z,0.20
2018-03-11T17:46:10.944Z,0.30
2018-03-11T17:48:37.967Z,0.37
2018-03-11T17:51:05.041Z,0.40
2018-03-11T17:53:32.060Z,0.20
2018-03-11T17:55:59.110Z,0.20
2018-03-11T17:58:26.184Z,0.27
2018-03-11T18:00:53.213Z,0.50
2018-03-11T18:03:20.236Z,0.73
2018-03-11T18:05:49.155Z,0.40
2018-03-11T18:08:16.172Z,0.30
2018-03-11T18:10:43.192Z,0.40
2018-03-11T18:13:10.274Z,0.30
2018-03-11T18:15:37.289Z,0.60
2018-03-11T18:18:05.255Z,0.20
2018-03-11T18:20:33.290Z,0.33
2018-03-11T18:23:00.321Z,0.20
2018-03-11T18:25:27.359Z,0.40
2018-03-11T18:27:54.482Z,0.10
2018-03-11T18:30:22.798Z,0.60
2018-03-11T18:32:49.822Z,0.40
2018-03-11T18:35:16.898Z,0.50
2018-03-11T18:37:43.924Z,0.63
2018-03-11T18:40:11.808Z,1.07
2018-03-11T18:47:55.859Z,1.00
2018-03-11T18:50:23.729Z,0.40
2018-03-11T18:52:50.761Z,0.50
2018-03-11T18:55:17.857Z,0.20
2018-03-11T18:57:44.884Z,0.30
2018-03-11T19:00:11.936Z,0.30
2018-03-11T19:02:39.016Z,0.23
2018-03-11T19:05:06.048Z,0.13
2018-03-11T19:07:33.089Z,0.30
2018-03-11T19:10:00.174Z,0.30
2018-03-11T19:12:27.215Z,0.30
2018-03-11T19:14:54.360Z,0.30
2018-03-11T19:17:21.531Z,0.40
2018-03-11T19:19:48.553Z,0.30
2018-03-11T19:22:15.576Z,0.10
2018-03-11T19:24:42.660Z,0.70
2018-03-11T19:27:09.922Z,0.40
2018-03-11T19:29:36.910Z,0.40
2018-03-11T19:32:04.012Z,0.20
2018-03-11T19:34:31.042Z,0.20
2018-03-11T19:36:58.058Z,0.20
2018-03-11T19:39:25.144Z,0.10
2018-03-11T19:41:52.171Z,0.10
2018-03-11T19:44:19.207Z,0.50
2018-03-11T19:46:46.290Z,0.30
2018-03-11T19:49:13.325Z,1.00
2018-03-11T19:51:40.874Z,1.07
2018-03-11T19:54:07.947Z,0.30
2018-03-11T19:56:35.057Z,0.20
2018-03-11T19:59:02.098Z,0.20
2018-03-11T20:01:29.176Z,0.23
2018-03-11T20:06:37.127Z,0.25
2018-03-11T20:09:04.117Z,0.40
2018-03-11T20:11:31.129Z,0.20
2018-03-11T20:13:58.199Z,0.30
2018-03-11T20:16:25.242Z,0.40
2018-03-11T20:18:52.262Z,0.30
2018-03-11T20:21:19.374Z,0.20
2018-03-11T20:23:46.455Z,0.20
2018-03-11T20:26:13.582Z,0.10
2018-03-11T20:28:41.479Z,0.30
2018-03-11T20:31:08.501Z,0.20
2018-03-11T20:33:35.527Z,0.17
2018-03-11T20:36:02.624Z,0.40
2018-03-11T20:38:29.641Z,0.53
2018-03-11T20:40:56.660Z,0.30
2018-03-11T20:43:23.747Z,0.30
2018-03-11T20:45:50.766Z,0.30
2018-03-11T20:48:17.878Z,0.20
2018-03-11T20:50:44.888Z,0.30
2018-03-11T20:53:12.028Z,0.17
2018-03-11T20:55:39.399Z,0.20
2018-03-11T20:58:06.434Z,0.20
2018-03-11T21:00:33.450Z,0.10
2018-03-11T21:03:00.540Z,0.10
2018-03-11T21:05:27.566Z,0.20
2018-03-11T21:07:54.606Z,0.40
2018-03-11T21:10:21.710Z,0.20
2018-03-11T21:12:48.839Z,0.30
2018-03-11T21:15:15.880Z,0.30
2018-03-11T21:17:43.943Z,0.20
2018-03-11T21:20:10.973Z,0.20
2018-03-11T21:22:38.268Z,0.20
2018-03-11T21:25:05.347Z,0.10
2018-03-11T21:30:10.920Z,0.13
2018-03-11T21:32:37.936Z,0.27
2018-03-11T21:35:04.958Z,0.10
2018-03-11T21:37:32.039Z,0.10
2018-03-11T21:39:59.066Z,0.40
2018-03-11T21:42:26.117Z,0.20
2018-03-11T21:44:53.207Z,0.47
2018-03-11T21:47:20.220Z,0.30
2018-03-11T21:49:47.336Z,0.60
2018-03-11T21:52:15.116Z,0.90
2018-03-11T21:54:42.131Z,0.30
2018-03-11T21:57:09.151Z,0.20
2018-03-11T21:59:36.238Z,0.20
2018-03-11T22:02:03.234Z,0.10
2018-03-11T22:04:30.266Z,0.20
2018-03-11T22:06:57.354Z,0.97
2018-03-11T22:09:24.377Z,1.10
2018-03-11T22:11:51.400Z,0.50
2018-03-11T22:14:18.467Z,0.50
2018-03-11T22:16:45.495Z,0.50
2018-03-11T22:19:12.526Z,1.30
2018-03-11T22:21:39.610Z,1.17
2018-03-11T22:24:06.635Z,0.47
2018-03-11T22:26:33.663Z,0.50
2018-03-11T22:29:00.744Z,0.30
2018-03-11T22:31:27.776Z,0.40
2018-03-11T22:33:54.798Z,0.30
2018-03-11T22:36:21.883Z,0.63
2018-03-11T22:38:48.950Z,0.50
2018-03-11T22:41:15.968Z,1.13
2018-03-11T22:43:43.043Z,0.50
2018-03-11T22:46:10.110Z,0.40
2018-03-11T22:53:32.377Z,0.83
2018-03-11T22:55:59.463Z,0.90
2018-03-11T22:58:26.424Z,0.40
2018-03-11T23:00:53.494Z,1.17
2018-03-11T23:03:20.527Z,1.20
2018-03-11T23:05:47.570Z,0.80
2018-03-11T23:08:14.653Z,2.07
2018-03-11T23:10:41.694Z,1.90
2018-03-11T23:13:08.753Z,1.70
2018-03-11T23:15:35.844Z,3.10
2018-03-11T23:18:02.867Z,2.30
2018-03-11T23:20:30.277Z,2.07
2018-03-11T23:25:47.312Z,2.00
2018-03-11T23:28:17.376Z,1.77
2018-03-11T23:30:44.414Z,1.37
2018-03-11T23:33:11.516Z,0.57
2018-03-11T23:35:38.568Z,0.10
2018-03-11T23:38:06.621Z,0.40
2018-03-11T23:40:33.642Z,1.60
2018-03-11T23:43:00.730Z,0.47
2018-03-11T23:45:27.761Z,2.13
2018-03-11T23:47:54.827Z,1.90
2018-03-11T23:50:21.898Z,0.87
2018-03-11T23:52:48.926Z,2.20
2018-03-11T23:55:15.980Z,0.90
2018-03-11T23:57:43.571Z,0.77
